createdAt,value
2023-04-17T00:02:21.214Z,102309.59
2023-04-17T00:04:49.682Z,102310.53
2023-04-17T00:07:22.740Z,102316.81
2023-04-17T00:09:51.087Z,102311.47
2023-04-17T00:12:19.203Z,102307.97
2023-04-17T00:14:47.254Z,102312.53
2023-04-17T00:17:15.400Z,102314.34
2023-04-17T00:19:45.412Z,102326.03
2023-04-17T00:22:13.524Z,102317.13
2023-04-17T00:24:41.569Z,102318.13
2023-04-17T00:27:10.016Z,102322.66
2023-04-17T00:29:38.417Z,102319.13
2023-04-17T00:32:06.802Z,102322.81
2023-04-17T00:34:35.259Z,102320.22
2023-04-17T00:37:04.750Z,102313.97
2023-04-17T00:39:32.903Z,102314.03
2023-04-17T00:42:01.645Z,102306.03
2023-04-17T00:44:29.794Z,102307.84
2023-04-17T00:46:58.206Z,102318.66
2023-04-17T00:49:26.764Z,102310.66
2023-04-17T00:51:55.013Z,102308.88
2023-04-17T00:54:25.716Z,102305.31
2023-04-17T00:56:56.436Z,102297.25
2023-04-17T00:59:24.930Z,102313.38
2023-04-17T01:01:53.191Z,102319.66
2023-04-17T01:04:21.480Z,102316.19
2023-04-17T01:06:49.877Z,102311.75
2023-04-17T01:09:17.990Z,102311.78
2023-04-17T01:11:47.457Z,102314.47
2023-04-17T01:14:16.336Z,102307.41
2023-04-17T01:16:44.712Z,102312.84
2023-04-17T01:19:15.641Z,102314.75
2023-04-17T01:21:43.752Z,102314.75
2023-04-17T01:24:13.400Z,102313.94
2023-04-17T01:26:41.862Z,102314.88
2023-04-17T01:29:10.487Z,102305.03
2023-04-17T01:31:38.790Z,102322.06
2023-04-17T01:34:06.925Z,102322.97
2023-04-17T01:36:35.136Z,102322.09
2023-04-17T01:39:04.033Z,102322.97
2023-04-17T01:41:33.547Z,102326.63
2023-04-17T01:44:01.715Z,102334.03
2023-04-17T01:46:29.939Z,102329.75
2023-04-17T01:48:58.274Z,102330.78
2023-04-17T01:51:28.006Z,102328.16
2023-04-17T01:53:56.113Z,102337.16
2023-04-17T01:56:24.487Z,102329.16
2023-04-17T01:58:53.963Z,102319.28
2023-04-17T02:01:22.178Z,102323.78
2023-04-17T02:03:50.816Z,102314.81
2023-04-17T02:06:19.343Z,102322.94
2023-04-17T02:08:47.411Z,102328.38
2023-04-17T02:11:16.013Z,102338.34
2023-04-17T02:13:44.116Z,102331.22
2023-04-17T02:16:13.658Z,102336.59
2023-04-17T02:18:42.019Z,102341.09
2023-04-17T02:21:10.437Z,102330.38
2023-04-17T02:23:38.543Z,102335.81
2023-04-17T02:26:06.900Z,102334.06
2023-04-17T02:28:35.118Z,102335.03
2023-04-17T02:31:03.376Z,102327.13
2023-04-17T02:33:32.841Z,102326.28
2023-04-17T02:36:01.014Z,102335.34
2023-04-17T02:38:30.084Z,102334.47
2023-04-17T02:40:58.446Z,102335.47
2023-04-17T02:43:26.850Z,102329.34
2023-04-17T02:45:55.488Z,102328.47
2023-04-17T02:48:23.640Z,102329.47
2023-04-17T02:50:53.131Z,102332.25
2023-04-17T02:53:21.320Z,102340.31
2023-04-17T02:55:49.537Z,102337.63
2023-04-17T02:58:17.636Z,102334.94
2023-04-17T03:00:45.959Z,102342.06
2023-04-17T03:03:14.264Z,102342.91
2023-04-17T03:05:42.693Z,102348.28
2023-04-17T03:08:12.240Z,102348.28
2023-04-17T03:10:42.482Z,102334.00
2023-04-17T03:13:10.584Z,102347.44
2023-04-17T03:15:38.687Z,102342.06
2023-04-17T03:18:06.930Z,102341.19
2023-04-17T03:20:35.071Z,102349.25
2023-04-17T03:23:03.167Z,102347.44
2023-04-17T03:25:32.621Z,102345.63
2023-04-17T03:28:00.686Z,102340.22
2023-04-17T03:30:28.787Z,102345.59
2023-04-17T03:32:57.294Z,102350.94
2023-04-17T03:35:25.483Z,102350.94
2023-04-17T03:37:53.614Z,102342.84
2023-04-17T03:40:21.725Z,102343.78
2023-04-17T03:42:51.228Z,102347.34
2023-04-17T03:45:19.506Z,102348.28
2023-04-17T03:47:48.304Z,102350.94
2023-04-17T03:50:16.622Z,102345.69
2023-04-17T03:52:44.724Z,102343.00
2023-04-17T03:55:12.770Z,102346.56
2023-04-17T03:57:40.887Z,102349.28
2023-04-17T04:00:12.263Z,102343.91
2023-04-17T04:02:40.443Z,102348.41
2023-04-17T04:05:09.224Z,102347.56
2023-04-17T04:07:37.364Z,102352.94
2023-04-17T04:10:06.097Z,102350.31
2023-04-17T04:12:34.218Z,102355.69
2023-04-17T04:15:02.277Z,102358.44
2023-04-17T04:17:31.778Z,102355.78
2023-04-17T04:19:59.888Z,102357.59
2023-04-17T04:22:29.229Z,102361.22
2023-04-17T04:24:57.554Z,102366.56
2023-04-17T04:27:27.688Z,102363.91
2023-04-17T04:29:58.702Z,102375.56
2023-04-17T04:32:27.825Z,102372.03
2023-04-17T04:34:58.414Z,102380.09
2023-04-17T04:37:30.002Z,102367.50
2023-04-17T04:40:02.108Z,102371.91
2023-04-17T04:42:30.265Z,102369.13
2023-04-17T04:44:58.393Z,102371.72
2023-04-17T04:47:26.622Z,102377.03
2023-04-17T04:49:54.750Z,102375.13
2023-04-17T04:52:24.382Z,102392.03
2023-04-17T04:54:52.463Z,102385.69
2023-04-17T04:57:20.653Z,102386.47
2023-04-17T04:59:48.741Z,102391.72
2023-04-17T05:02:16.961Z,102385.22
2023-04-17T05:04:45.172Z,102401.16
2023-04-17T05:07:13.445Z,102391.28
2023-04-17T05:09:43.238Z,102401.97
2023-04-17T05:12:11.313Z,102399.13
2023-04-17T05:14:39.754Z,102409.69
2023-04-17T05:17:08.411Z,102399.53
2023-04-17T05:19:36.575Z,102404.56
2023-04-17T05:22:04.675Z,102408.75
2023-04-17T05:24:32.762Z,102409.41
2023-04-17T05:27:03.021Z,102410.03
2023-04-17T05:29:32.896Z,102417.94
2023-04-17T05:32:01.114Z,102425.84
2023-04-17T05:34:29.298Z,102420.34
2023-04-17T05:36:57.428Z,102427.44
2023-04-17T05:39:25.644Z,102431.00
2023-04-17T05:41:53.774Z,102420.22
2023-04-17T05:44:23.251Z,102430.28
2023-04-17T05:46:51.348Z,102438.47
2023-04-17T05:49:19.409Z,102433.09
2023-04-17T05:51:47.513Z,102436.56
2023-04-17T05:54:15.578Z,102433.63
2023-04-17T05:56:43.696Z,102440.44
2023-04-17T05:59:11.945Z,102432.75
2023-04-17T06:01:41.641Z,102436.19
2023-04-17T06:04:10.160Z,102431.28
2023-04-17T06:06:38.493Z,102440.53
2023-04-17T06:09:07.902Z,102442.63
2023-04-17T06:11:36.087Z,102439.59
2023-04-17T06:14:04.265Z,102442.84
2023-04-17T06:16:32.419Z,102439.72
2023-04-17T06:19:02.052Z,102442.97
2023-04-17T06:21:31.502Z,102439.88
2023-04-17T06:23:59.589Z,102444.84
2023-04-17T06:26:27.678Z,102439.31
2023-04-17T06:28:55.914Z,102447.00
2023-04-17T06:31:24.053Z,102444.97
2023-04-17T06:33:52.171Z,102438.22
2023-04-17T06:36:21.688Z,102441.94
2023-04-17T06:38:49.818Z,102440.50
2023-04-17T06:41:17.931Z,102445.75
2023-04-17T06:43:46.017Z,102446.28
2023-04-17T06:46:14.160Z,102452.97
2023-04-17T06:48:42.359Z,102445.25
2023-04-17T06:51:10.624Z,102451.09
2023-04-17T06:53:40.071Z,102458.81
2023-04-17T06:56:08.267Z,102459.84
2023-04-17T06:58:42.383Z,102460.56
2023-04-17T07:01:10.932Z,102469.41
2023-04-17T07:03:39.973Z,102462.88
2023-04-17T07:06:08.934Z,102468.66
2023-04-17T07:08:37.032Z,102470.56
2023-04-17T07:11:07.337Z,102472.31
2023-04-17T07:13:35.541Z,102473.59
2023-04-17T07:16:04.021Z,102482.41
2023-04-17T07:18:32.217Z,102473.66
2023-04-17T07:21:00.599Z,102483.25
2023-04-17T07:23:28.738Z,102476.97
2023-04-17T07:25:56.899Z,102489.53
2023-04-17T07:28:26.466Z,102490.38
2023-04-17T07:30:58.092Z,102492.00
2023-04-17T07:33:26.532Z,102480.13
2023-04-17T07:35:54.602Z,102488.16
2023-04-17T07:38:22.704Z,102489.41
2023-04-17T07:40:50.768Z,102496.88
2023-04-17T07:43:18.844Z,102501.06
2023-04-17T07:45:48.985Z,102498.91
2023-04-17T07:48:18.694Z,102508.75
2023-04-17T07:50:47.057Z,102498.09
2023-04-17T07:53:15.166Z,102505.81
2023-04-17T07:55:43.323Z,102513.41
2023-04-17T07:58:12.760Z,102508.75
2023-04-17T08:00:41.530Z,102509.97
2023-04-17T08:03:11.209Z,102510.94
2023-04-17T08:05:39.501Z,102505.91
2023-04-17T08:08:07.645Z,102507.56
2023-04-17T08:10:35.769Z,102506.38
2023-04-17T08:13:03.860Z,102513.09
2023-04-17T08:15:32.446Z,102514.00
2023-04-17T08:18:00.662Z,102508.47
2023-04-17T08:20:30.237Z,102514.50
2023-04-17T08:22:58.388Z,102520.69
2023-04-17T08:25:26.696Z,102517.19
2023-04-17T08:27:54.869Z,102514.56
2023-04-17T08:30:23.428Z,102521.97
2023-04-17T08:32:52.371Z,102518.06
2023-04-17T08:35:20.835Z,102514.78
2023-04-17T08:37:50.450Z,102511.47
2023-04-17T08:40:18.842Z,102516.00
2023-04-17T08:42:48.216Z,102517.38
2023-04-17T08:45:17.388Z,102519.44
2023-04-17T08:47:45.578Z,102511.28
2023-04-17T08:50:15.434Z,102523.03
2023-04-17T08:52:44.279Z,102520.75
2023-04-17T08:55:15.782Z,102526.50
2023-04-17T08:57:57.616Z,102518.22
2023-04-17T09:00:27.237Z,102523.56
2023-04-17T09:02:57.522Z,102520.44
2023-04-17T09:05:26.895Z,102536.03
2023-04-17T09:08:10.200Z,102528.25
2023-04-17T09:10:41.247Z,102525.72
2023-04-17T09:13:09.914Z,102531.38
2023-04-17T09:15:38.139Z,102534.66
2023-04-17T09:18:06.366Z,102531.53
2023-04-17T09:20:48.926Z,102535.25
2023-04-17T09:23:17.043Z,102532.72
2023-04-17T09:25:47.344Z,102534.19
2023-04-17T09:28:16.215Z,102537.19
2023-04-17T09:30:44.589Z,102539.63
2023-04-17T09:33:13.108Z,102542.84
2023-04-17T09:35:41.263Z,102547.97
2023-04-17T09:38:09.386Z,102542.94
2023-04-17T09:40:38.835Z,102541.63
2023-04-17T09:43:10.439Z,102543.69
2023-04-17T09:45:42.451Z,102538.34
2023-04-17T09:48:12.304Z,102550.81
2023-04-17T09:50:40.962Z,102548.97
2023-04-17T09:53:09.600Z,102549.06
2023-04-17T09:55:39.376Z,102549.06
2023-04-17T09:58:09.024Z,102550.56
2023-04-17T10:00:38.179Z,102558.56
2023-04-17T10:03:08.292Z,102551.31
2023-04-17T10:05:36.864Z,102561.66
2023-04-17T10:08:05.509Z,102558.25
2023-04-17T10:10:36.284Z,102563.03
2023-04-17T10:13:06.578Z,102563.47
2023-04-17T10:15:36.465Z,102563.50
2023-04-17T10:18:21.247Z,102566.19
2023-04-17T10:20:50.212Z,102570.75
2023-04-17T10:23:31.903Z,102561.81
2023-04-17T10:26:45.955Z,102573.41
2023-04-17T10:29:14.138Z,102575.56
2023-04-17T10:32:29.184Z,102565.03
2023-04-17T10:34:59.729Z,102573.03
2023-04-17T10:38:00.980Z,102564.91
2023-04-17T10:40:32.210Z,102574.50
2023-04-17T10:43:05.368Z,102576.75
2023-04-17T10:45:56.409Z,102577.28
2023-04-17T10:48:28.919Z,102573.41
2023-04-17T10:50:58.453Z,102578.78
2023-04-17T10:53:45.750Z,102584.72
2023-04-17T10:56:19.217Z,102582.31
2023-04-17T10:58:59.071Z,102581.44
2023-04-17T11:01:29.713Z,102581.59
2023-04-17T11:03:59.683Z,102576.53
2023-04-17T11:06:31.328Z,102583.94
2023-04-17T11:09:01.792Z,102583.94
2023-04-17T11:11:43.426Z,102584.94
2023-04-17T11:14:14.610Z,102585.09
2023-04-17T11:16:44.334Z,102581.59
2023-04-17T11:19:14.554Z,102586.47
2023-04-17T11:21:45.183Z,102595.53
2023-04-17T11:24:13.475Z,102600.19
2023-04-17T11:26:44.828Z,102603.63
2023-04-17T11:29:16.822Z,102600.00
2023-04-17T11:31:45.974Z,102600.72
2023-04-17T11:34:15.605Z,102607.41
2023-04-17T11:36:51.272Z,102609.59
2023-04-17T11:39:20.150Z,102614.91
2023-04-17T11:41:51.734Z,102611.78
2023-04-17T11:44:21.069Z,102611.50
2023-04-17T11:46:51.064Z,102621.59
2023-04-17T11:49:25.612Z,102617.13
2023-04-17T11:51:55.163Z,102619.38
2023-04-17T11:54:27.576Z,102608.56
2023-04-17T11:57:01.931Z,102619.38
2023-04-17T11:59:33.766Z,102623.16
2023-04-17T12:02:02.377Z,102621.41
2023-04-17T12:04:34.065Z,102625.03
2023-04-17T12:07:05.051Z,102628.25
2023-04-17T12:09:33.661Z,102618.97
2023-04-17T12:12:03.592Z,102620.84
2023-04-17T12:14:32.192Z,102623.56
2023-04-17T12:17:01.321Z,102616.47
2023-04-17T12:19:31.738Z,102626.41
2023-04-17T12:22:00.233Z,102630.69
2023-04-17T12:24:29.743Z,102635.38
2023-04-17T12:26:58.790Z,102627.38
2023-04-17T12:29:36.809Z,102622.44
2023-04-17T12:32:11.389Z,102622.63
2023-04-17T12:34:39.673Z,102623.59
2023-04-17T12:37:07.928Z,102622.44
2023-04-17T12:39:37.521Z,102624.75
2023-04-17T12:42:06.045Z,102633.22
2023-04-17T12:44:34.147Z,102627.53
2023-04-17T12:47:02.437Z,102625.19
2023-04-17T12:49:30.545Z,102628.41
2023-04-17T12:52:00.353Z,102632.84
2023-04-17T12:54:30.178Z,102631.56
2023-04-17T12:57:00.082Z,102635.97
2023-04-17T12:59:28.551Z,102623.88
2023-04-17T13:01:56.846Z,102632.91
2023-04-17T13:04:25.243Z,102635.44
2023-04-17T13:06:53.414Z,102637.69
2023-04-17T13:09:21.678Z,102637.88
2023-04-17T13:11:49.800Z,102627.66
2023-04-17T13:14:19.245Z,102633.69
2023-04-17T13:16:48.709Z,102635.34
2023-04-17T13:19:16.970Z,102639.25
2023-04-17T13:21:45.037Z,102640.22
2023-04-17T13:24:14.794Z,102637.38
2023-04-17T13:26:42.977Z,102641.31
2023-04-17T13:29:11.394Z,102647.16
2023-04-17T13:31:41.090Z,102641.97
2023-04-17T13:34:09.268Z,102638.09
2023-04-17T13:36:37.404Z,102633.66
2023-04-17T13:39:05.577Z,102632.88
2023-04-17T13:41:33.647Z,102633.75
2023-04-17T13:44:01.726Z,102632.09
2023-04-17T13:46:29.859Z,102639.22
2023-04-17T13:48:59.852Z,102620.44
2023-04-17T13:51:28.054Z,102630.56
2023-04-17T13:53:58.583Z,102623.53
2023-04-17T13:56:27.873Z,102631.28
2023-04-17T13:58:56.012Z,102620.13
2023-04-17T14:01:24.375Z,102625.84
2023-04-17T14:03:52.796Z,102631.38
2023-04-17T14:06:22.370Z,102633.75
2023-04-17T14:08:50.660Z,102625.31
2023-04-17T14:11:19.297Z,102632.69
2023-04-17T14:13:47.370Z,102628.41
2023-04-17T14:16:15.521Z,102620.94
2023-04-17T14:18:43.622Z,102625.94
2023-04-17T14:21:11.743Z,102637.53
2023-04-17T14:23:41.361Z,102641.13
2023-04-17T14:26:09.640Z,102636.88
2023-04-17T14:28:37.794Z,102631.31
2023-04-17T14:31:06.416Z,102632.09
2023-04-17T14:33:34.532Z,102640.56
2023-04-17T14:36:04.500Z,102635.81
2023-04-17T14:38:34.793Z,102627.13
2023-04-17T14:41:04.309Z,102647.25
2023-04-17T14:43:32.562Z,102645.34
2023-04-17T14:46:00.693Z,102641.44
2023-04-17T14:48:30.339Z,102630.09
2023-04-17T14:50:59.908Z,102637.59
2023-04-17T14:53:28.225Z,102636.00
2023-04-17T14:55:56.397Z,102637.75
2023-04-17T14:58:25.916Z,102637.44
2023-04-17T15:00:54.073Z,102639.25
2023-04-17T15:03:22.420Z,102646.13
2023-04-17T15:05:52.265Z,102646.34
2023-04-17T15:08:20.584Z,102651.78
2023-04-17T15:10:51.471Z,102648.94
2023-04-17T15:13:19.820Z,102644.81
2023-04-17T15:15:49.441Z,102639.03
2023-04-17T15:18:17.553Z,102648.94
2023-04-17T15:20:46.350Z,102651.00
2023-04-17T15:23:15.523Z,102647.84
2023-04-17T15:25:43.624Z,102645.72
2023-04-17T15:28:12.481Z,102656.75
2023-04-17T15:30:40.787Z,102666.50
2023-04-17T15:33:10.612Z,102661.84
2023-04-17T15:35:39.008Z,102647.09
2023-04-17T15:38:07.882Z,102668.13
2023-04-17T15:40:35.970Z,102661.22
2023-04-17T15:43:04.275Z,102666.22
2023-04-17T15:45:32.410Z,102664.63
2023-04-17T15:48:01.671Z,102660.50
2023-04-17T15:50:31.351Z,102665.97
2023-04-17T15:52:59.519Z,102666.06
2023-04-17T15:55:27.606Z,102657.63
2023-04-17T15:57:56.112Z,102661.94
2023-04-17T16:00:24.407Z,102659.06
2023-04-17T16:02:52.926Z,102663.13
2023-04-17T16:05:21.598Z,102658.88
2023-04-17T16:07:51.106Z,102654.34
2023-04-17T16:10:19.323Z,102659.94
2023-04-17T16:12:47.629Z,102662.06
2023-04-17T16:15:18.485Z,102665.03
2023-04-17T16:17:48.619Z,102659.50
2023-04-17T16:20:17.476Z,102660.03
2023-04-17T16:22:45.596Z,102661.97
2023-04-17T16:25:15.096Z,102656.81
2023-04-17T16:27:43.517Z,102653.28
2023-04-17T16:30:11.909Z,102667.88
2023-04-17T16:32:39.986Z,102662.56
2023-04-17T16:35:08.760Z,102666.84
2023-04-17T16:37:37.402Z,102664.69
2023-04-17T16:40:06.669Z,102667.91
2023-04-17T16:42:36.281Z,102664.66
2023-04-17T16:45:04.926Z,102669.56
2023-04-17T16:47:33.140Z,102667.81
2023-04-17T16:50:01.408Z,102666.75
2023-04-17T16:52:29.817Z,102665.94
2023-04-17T16:54:57.956Z,102672.84
2023-04-17T16:57:26.106Z,102670.19
2023-04-17T16:59:55.725Z,102673.66
2023-04-17T17:02:23.858Z,102672.09
2023-04-17T17:04:52.092Z,102681.22
2023-04-17T17:07:20.630Z,102680.69
2023-04-17T17:09:49.093Z,102683.72
2023-04-17T17:12:17.283Z,102682.63
2023-04-17T17:14:45.527Z,102680.28
2023-04-17T17:17:15.043Z,102686.81
2023-04-17T17:19:43.222Z,102683.78
2023-04-17T17:22:11.346Z,102690.09
2023-04-17T17:24:40.013Z,102699.03
2023-04-17T17:27:08.107Z,102699.59
2023-04-17T17:29:36.428Z,102699.88
2023-04-17T17:32:04.999Z,102705.56
2023-04-17T17:34:35.730Z,102719.66
2023-04-17T17:37:04.048Z,102708.47
2023-04-17T17:39:32.345Z,102716.19
2023-04-17T17:42:03.012Z,102718.59
2023-04-17T17:44:32.354Z,102717.25
2023-04-17T17:47:01.890Z,102726.50
2023-04-17T17:49:29.990Z,102721.34
2023-04-17T17:51:59.497Z,102734.31
2023-04-17T17:54:27.696Z,102721.19
2023-04-17T17:56:55.818Z,102726.00
2023-04-17T17:59:23.977Z,102726.41
2023-04-17T18:01:52.230Z,102726.63
2023-04-17T18:04:20.789Z,102730.44
2023-04-17T18:06:49.202Z,102728.00
2023-04-17T18:09:18.744Z,102728.19
2023-04-17T18:11:47.069Z,102740.00
2023-04-17T18:14:15.133Z,102734.75
2023-04-17T18:16:43.198Z,102734.16
2023-04-17T18:19:11.312Z,102748.75
2023-04-17T18:21:39.408Z,102748.06
2023-04-17T18:24:08.562Z,102745.72
2023-04-17T18:26:38.116Z,102746.97
2023-04-17T18:29:06.372Z,102752.59
2023-04-17T18:31:34.469Z,102751.91
2023-04-17T18:34:02.881Z,102755.63
2023-04-17T18:36:30.990Z,102759.44
2023-04-17T18:38:59.137Z,102768.53
2023-04-17T18:41:27.321Z,102767.81
2023-04-17T18:43:56.781Z,102767.06
2023-04-17T18:46:27.048Z,102779.84
2023-04-17T18:48:55.400Z,102778.25
2023-04-17T18:51:23.594Z,102780.16
2023-04-17T18:53:51.683Z,102774.09
2023-04-17T18:56:19.784Z,102779.59
2023-04-17T18:58:47.859Z,102781.53
2023-04-17T19:01:17.571Z,102785.22
2023-04-17T19:03:46.149Z,102791.63
2023-04-17T19:06:14.251Z,102788.09
2023-04-17T19:08:42.439Z,102793.59
2023-04-17T19:11:10.613Z,102793.63
2023-04-17T19:13:38.763Z,102791.16
2023-04-17T19:16:06.962Z,102792.19
2023-04-17T19:18:36.460Z,102794.03
2023-04-17T19:21:04.623Z,102795.84
2023-04-17T19:23:32.711Z,102801.31
2023-04-17T19:26:00.827Z,102798.75
2023-04-17T19:28:28.936Z,102796.25
2023-04-17T19:30:57.863Z,102804.44
2023-04-17T19:33:26.033Z,102802.75
2023-04-17T19:35:58.375Z,102798.31
2023-04-17T19:38:27.835Z,102796.59
2023-04-17T19:41:12.225Z,102791.25
2023-04-17T19:43:40.455Z,102802.97
2023-04-17T19:46:09.705Z,102802.22
2023-04-17T19:48:38.158Z,102806.81
2023-04-17T19:51:07.918Z,102803.31
2023-04-17T19:53:37.284Z,102799.78
2023-04-17T19:56:08.318Z,102806.06
2023-04-17T19:58:37.452Z,102806.09
2023-04-17T20:01:05.837Z,102808.81
2023-04-17T20:03:35.411Z,102801.66
2023-04-17T20:06:04.427Z,102807.94
2023-04-17T20:08:33.932Z,102815.16
2023-04-17T20:11:02.108Z,102816.06
2023-04-17T20:13:30.241Z,102809.84
2023-04-17T20:15:58.447Z,102815.25
2023-04-17T20:18:27.246Z,102812.59
2023-04-17T20:20:55.382Z,102807.25
2023-04-17T20:23:23.463Z,102811.69
2023-04-17T20:25:52.919Z,102810.81
2023-04-17T20:28:21.001Z,102814.41
2023-04-17T20:30:49.127Z,102808.13
2023-04-17T20:33:17.369Z,102812.59
2023-04-17T20:35:45.543Z,102810.88
2023-04-17T20:38:13.704Z,102803.81
2023-04-17T20:40:41.792Z,102805.59
2023-04-17T20:43:11.441Z,102811.00
2023-04-17T20:45:39.685Z,102812.78
2023-04-17T20:48:07.904Z,102814.59
2023-04-17T20:50:36.109Z,102811.94
2023-04-17T20:53:04.217Z,102815.53
2023-04-17T20:55:32.321Z,102819.13
2023-04-17T20:58:00.429Z,102821.81
2023-04-17T21:00:29.923Z,102820.91
2023-04-17T21:02:58.182Z,102820.91
2023-04-17T21:05:26.412Z,102822.72
2023-04-17T21:07:54.895Z,102823.59
2023-04-17T21:10:22.976Z,102824.53
2023-04-17T21:12:51.227Z,102826.38
2023-04-17T21:15:19.493Z,102829.09
2023-04-17T21:17:48.997Z,102836.31
2023-04-17T21:20:17.222Z,102830.09
2023-04-17T21:22:45.325Z,102830.13
2023-04-17T21:25:13.449Z,102839.06
2023-04-17T21:27:41.681Z,102834.59
2023-04-17T21:30:10.678Z,102833.81
2023-04-17T21:32:40.139Z,102837.41
2023-04-17T21:35:10.833Z,102839.25
2023-04-17T21:37:39.338Z,102836.63
2023-04-17T21:40:08.735Z,102839.38
2023-04-17T21:42:36.823Z,102841.22
2023-04-17T21:45:05.571Z,102839.53
2023-04-17T21:47:34.944Z,102843.09
2023-04-17T21:50:03.081Z,102836.88
2023-04-17T21:52:32.530Z,102833.34
2023-04-17T21:55:05.100Z,102836.00
2023-04-17T21:57:33.396Z,102836.97
2023-04-17T22:00:01.677Z,102840.53
2023-04-17T22:02:29.888Z,102839.69
2023-04-17T22:04:58.065Z,102847.69
2023-04-17T22:07:26.273Z,102847.69
2023-04-17T22:09:55.728Z,102848.56
2023-04-17T22:12:23.832Z,102861.03
2023-04-17T22:14:51.951Z,102853.84
2023-04-17T22:17:20.067Z,102855.63
2023-04-17T22:19:48.201Z,102852.88
2023-04-17T22:22:16.350Z,102853.78
2023-04-17T22:24:44.488Z,102848.44
2023-04-17T22:27:14.058Z,102849.28
2023-04-17T22:29:42.155Z,102850.13
2023-04-17T22:32:10.214Z,102852.75
2023-04-17T22:34:39.559Z,102855.38
2023-04-17T22:37:09.336Z,102851.75
2023-04-17T22:39:37.400Z,102860.63
2023-04-17T22:42:05.551Z,102858.78
2023-04-17T22:44:35.068Z,102851.59
2023-04-17T22:47:03.400Z,102851.56
2023-04-17T22:49:32.483Z,102852.38
2023-04-17T22:52:01.001Z,102851.44
2023-04-17T22:54:29.064Z,102857.63
2023-04-17T22:56:57.188Z,102847.75
2023-04-17T22:59:25.288Z,102849.53
2023-04-17T23:01:55.429Z,102845.91
2023-04-17T23:04:24.148Z,102852.13
2023-04-17T23:06:52.245Z,102861.91
2023-04-17T23:09:20.359Z,102856.50
2023-04-17T23:11:48.435Z,102854.69
2023-04-17T23:14:16.500Z,102853.69
2023-04-17T23:16:44.594Z,102855.41
2023-04-17T23:19:14.031Z,102859.00
2023-04-17T23:21:42.092Z,102858.94
2023-04-17T23:24:10.353Z,102864.28
2023-04-17T23:26:38.566Z,102853.53
2023-04-17T23:29:06.668Z,102849.06
2023-04-17T23:31:34.872Z,102856.22
2023-04-17T23:34:02.946Z,102849.13
2023-04-17T23:36:32.416Z,102852.75
2023-04-17T23:39:00.845Z,102852.81
2023-04-17T23:41:29.646Z,102851.03
2023-04-17T23:43:57.917Z,102844.84
2023-04-17T23:46:26.128Z,102854.69
2023-04-17T23:48:54.224Z,102851.19
2023-04-17T23:51:22.335Z,102852.19
2023-04-17T23:53:51.833Z,102849.56
2023-04-17T23:56:22.124Z,102860.38
2023-04-17T23:58:50.253Z,102858.66
